Port of Québec
Water Temperature

19.6C (67.3F)

Tides

Next Tide

Descending

Low

23:45

High

05:15


Water Temperature

19.6C (67.3F)

Tides

Next Tide

Descending

Low

23:45

High

05:15


Port Operations

Carcy img 9181

Last update : June 18, 2024 17:13

Vessels in Port

Berth Name of vessel C-1836 E.T.D. Nat. L.O.A. G.R.T. Agent Orig. Dest. C/D Remarks
17 OCEAN EXPRESS 65230 CA 14.4 29 REMQU QBC ACF Waiting
17 MARTHA L BLACK 65001 CA 83.01 3 PECA QBC ACF Services portuaires
19 QUAI FERMÉ 0 QUAI FERMÉ
19 ECRC-SIMEC 300 64999 CA 58.66 499 COPIM QBC ACF Waiting
20 OCEAN CLOVIS T 65005 CA 30.65 381 GROCE QBC ACF Waiting
20 OCEAN HENRY BAIN 65006 CA 30.8 402 GROCE QBC ACF Waiting
20 OCEAN TUNDRA 65054 CA 36.0 719 GROCE QBC ACF Waiting
20 OMNI ATLAS 65040 CA 40.6 479 GROCE QBC ACF Waiting
20 PUGWASH 65039 CA 73.15 1 GROCE QBC ACF Waiting
20 RADIUM 607 65011 CA 45.72 320 GROCE QBC QBC Waiting
20 TIMBERLAND 65012 CA 44.31 799 GROCE QBC QBC Waiting
20 NOUVEAU-BRUNSWICK CSF #1 65025 CA 61.25 2 GROCE QBC ACF Waiting
20 LAC ST-FRANCOIS 64997 CA 59.43 682 GROCE QBC ACF Waiting
20 DB MONTREAL VANCOUVER 64993 CA 36.58 786 OCEAN QBC QBC Waiting
20 OCEAN ARVIK 65004 CA 48.77 556 GROCE SOR ACF Waiting
26 FUNDY PARADISE 65000 CA 97.85 3 MARIS QBC ACF Waiting
26 OCEAN TRAVERSE NORD 65438 2024-07-13 00:00 CA 67.65 1 GROCE TVN Waiting
27 CARILLONS 64992 CA 19.81 90 BEPR QBC QBC Waiting
27 TORONTO 401 65013 CA 91.44 3 BEPR QBC QBC Waiting
29 QUAI FERMÉ 0 QUAI FERMÉ
30 QUAI FERMÉ 0 QUAI FERMÉ
31 ARMAND IMBEAU II 65386 CA 92.0 2 ST TAD QBC Services portuaires
31 JOSEPH SAVARD 62670 CA 62.8 1 ST QBC ICD Services portuaires
31 LOMER GOUIN 65267 2024-06-20 11:11 CA 66.47 1 ST QBC ACF Services portuaires
50 PAUL A. DESGAGNES 65443 2024-06-18 22:30 CA 135.0 12 PETRO MTL HAM C Liquid
51 ARVIK I 65446 2024-06-22 22:22 CA 188.0 22 FDNQC DCP QBC D Dry bulk
54 SIPU MUIN 65285 CA 28.5 52 PECA TRV ACF Waiting
86 ROSSI A. DESGAGNES 65428 2024-06-20 07:00 CA 135.0 12 PETRO RKI C Liquid
101 SVANOY 65445 2024-06-22 11:11 CA 83.3 2 LOGI ICD ACF Services portuaires
102 DES GROSEILLIERS 65447 2024-06-20 11:11 CA 98.24 6 PECA QBC QBC Services portuaires
104 CAPE V7A6080 65444 2024-06-19 22:22 MH 186.0 19 LSL BZ ACF D Dry bulk
108 GAIA DESGAGNES 65442 2024-06-20 08:30 CA 149.9 12 PETRO GAS QBC C LNG

Last update : June 18, 2024 17:13

Expected vessels

Berth Name of vessel Reserv. E.T.A. Nat. L.O.A. G.R.T. Agent Orig. Dest. C/D Remarks
53 WHITEFISH BAY 107040 2024-06-19 01:00 CA 225.0 24 CSL SUW QBC D Divers
28 TRITON WIND I 106998 2024-06-19 12:00 LR 183.66 24 PROSH MTL C Dry bulk
18 ALGOMA EQUINOX 106582 2024-06-19 18:00 CA 225.55 23 ALGOM TUN D Dry bulk
52 WHITEFISH BAY 107041 2024-06-19 22:22 CA 225.0 24 CSL QBC C Dry bulk
87 CAP CORPUS CHRISTI 106905 2024-06-20 07:30 GR 277.0 82 OT YIG D Crude o
103 UMIAK I 106396 2024-06-20 07:30 CA 188.8 22 FDNQC DCP TRV C Breakbu
86 GAIA DESGAGNES 106940 2024-06-20 09:45 CA 149.9 12 PETRO QBC C Liquid
104 POOLGRACHT 106814 2024-06-21 00:01 NL 168.68 5 MCKE TRV NWP C Breakbu
53 NORDIC ODYSSEY 107037 2024-06-21 07:30 LR 225.0 40 LSL ESP MTL D Dry bulk
86 NORDIC ACE 107058 2024-06-21 10:15 PA 142.02 9 OT BEC C Produits pétroliers
52 GCL LUXEMBOURG 107042 2024-06-21 12:00 PA 225.3 44 JMAG C Divers
87 LAURENTIA DESGAGNES 106903 2024-06-21 20:45 CA 228.6 42 PETRO MTL MTL D Crude o
87 DAMIA DESGAGNES 106877 2024-06-22 09:30 CA 135.0 11 PETRO PCA C Liquid
53 CSL ST LAURENT 107043 2024-06-22 10:00 CA 225.5 22 CSL D Divers
28 HINOKI 106997 2024-06-22 22:22 LR 183.0 29 LADEM FRW LAG C Dry bulk
101 ARVIK I 106395 2024-06-22 22:22 CA 188.0 22 FDNQC QBC SRG C Breakbu
53 ATLANTIC HURON-VCQN 107044 2024-06-23 06:00 CA 224.37 23 CSL D Divers
107 NUKUMI 106938 2024-06-23 08:00 CA 225.0 22 CSL IDL IDL D Salt .
103 UMIAK I 107076 2024-06-23 22:22 CA 188.8 22 FEDN TRV QBC C Breakbu
86 CB PACIFIC 107062 2024-06-24 11:11 PT 182.78 27 Divers
87 LAURENTIA DESGAGNES 107055 2024-06-24 14:00 CA 228.6 42 PETRO MTL MTL D Crude o
53 CSL ASSINIBOINE 107046 2024-06-24 22:00 CA 222.0 23 CSL D Divers
50 JAG PRIYA 106996 2024-06-25 06:00 IN 175.0 28 D Liquid
22 T.S. KENNEDY 107154 2024-06-25 08:00 US 164.6 13 LSL Visite .
53 RT HON PAUL J MARTIN 107047 2024-06-25 09:00 CA 222.51 23 CSL D Divers
27 TENDRA TRADER 104253 2024-06-26 22:00 PA 199.9 36 LSL D Waiting
87 CAP PORT ARTHUR 107056 2024-06-27 00:15 GR 277.0 82 OT D Crude o
50 PAUL A. DESGAGNES 107117 2024-06-27 01:00 CA 135.0 12 PETRO MTL MTL D Produits pétroliers
86 LAURENTIA DESGAGNES 107057 2024-06-27 01:45 CA 228.6 42 PETRO MTL MTL D Crude o
86 ARVIK I 106875 2024-06-27 22:22 CA 188.0 22 FEDN QBC DCP C Liquid
28 FEDERAL SUTTON 107134 2024-06-28 00:00 MH 189.99 24 BEC C Dry bulk
86 CB PACIFIC 107063 2024-06-28 11:11 PT 182.78 27 Divers
999 MIA DESGAGNÉS 107094 2024-06-28 15:30 CA 135.0 12 PETRO SEP SRG C LNG
52 BAIE ST PAUL 107048 2024-06-29 00:00 CA 225.5 24 CSL C Dry bulk
18 CSL ST LAURENT 107155 2024-06-30 00:00 CA 225.5 22 CSL D Dry bulk
53 CSL LAURENTIEN 107045 2024-06-30 02:00 CA 225.477 24 CSL D Divers
86 MIA DESGAGNÉS 107115 2024-06-30 16:30 CA 135.0 12 PETRO QBC SAI C Liquid
107 UMIAK I 107077 2024-06-30 22:22 CA 188.8 22 FEDN QBC VSB C Breakbu
18 EVANS SPIRIT 107061 2024-07-01 00:00 CA 139.95 9 EVAN D Dry bulk
52 QUAI FERMÉ 104835 2024-07-01 00:01 CA 5.0 5 Services portuaires
50 FURE VITEN 107074 2024-07-01 15:00 SE 149.9 12 HSMAL MTL MTL D Liquid
87 LAURENTIA DESGAGNES 107116 2024-07-01 17:00 CA 228.6 42 PETRO MTL MTL D Crude o
18 ALGOMA EQUINOX 107059 2024-07-07 00:00 CA 225.55 23 ALGOM D Dry bulk
18 G3 MARQUIS 107060 2024-07-08 00:00 CA 225.55 24 ALGOM D Dry bulk
107 NUKUMI 107078 2024-07-12 22:00 CA 225.0 22 CSL IDL IDL D Salt .
50 TSUKUBA GALAXY 107079 2024-07-18 11:11 PA 159.03 16 D Liquid
26 RADIUM 607 105582 2024-07-19 00:00 CA 45.72 320 GROCE QBC Services portuaires
27 NACC QUEBEC 104255 2024-08-15 11:11 CA 139.95 10 ALGOM PDL D Waiting
19 DREAMBOAT 106617 2024-08-18 00:00 KY 90.0 2 Visite .
27 A ETRE CONFIRME 104256 2024-08-20 11:11 CA 0.0 1 D Waiting
52 QUAI FERMÉ 104836 2024-09-09 00:01 CA 5.0 5 Services portuaires
27 A ETRE CONFIRME 104257 2024-09-20 11:11 CA 0.0 1 QBC D Waiting
51 A ETRE CONFIRME 104258 2024-09-20 11:11 CA 0.0 1 ALGOM QBC D Waiting
27 NACC QUEBEC 104259 2024-10-15 11:11 CA 139.95 10 ALGOM D Waiting
27 A ETRE CONFIRME 106038 2024-10-30 11:11 CA 0.0 1 QBC D Waiting
51 A ETRE CONFIRME 104260 2024-10-30 11:11 CA 0.0 1 ALGOM QBC D Waiting
27 NACC QUEBEC 106039 2024-11-29 11:11 CA 139.95 10 ALGOM D Waiting
Water Temperature

19.6C (67.3F)

Tides

Next Tide

Descending

Low

23:45

High

05:15


Home > Operations > Port Operations > Vessels in port